Time;durP1;ratioP1;P1;durP2;ratioP2;P2;SDS_P1;SDS_P2;PMS_P1;PMS_P2;Temp;Humidity;BMP_temperature;BMP_pressure;BME280_temperature;BME280_humidity;BME280_pressure;Samples;Min_cycle;Max_cycle;Signal;HPM_P1;HPM_P2
2023/08/04 00:01:22;;;;;;;6.43;1.85;;;15.80;99.90;;;;;;5071396;28;20070;-54
2023/08/04 00:03:47;;;;;;;3.33;1.83;;;15.70;99.90;;;;;;5071487;28;20075;-53
2023/08/04 00:06:13;;;;;;;4.72;1.50;;;15.70;99.90;;;;;;5072556;28;20056;-54
2023/08/04 00:08:38;;;;;;;4.75;1.75;;;15.80;99.90;;;;;;5073008;28;20472;-53
2023/08/04 00:11:04;;;;;;;6.90;1.85;;;15.70;99.90;;;;;;5072523;28;20058;-52
2023/08/04 00:13:31;;;;;;;4.72;1.85;;;15.70;99.90;;;;;;5072068;28;20029;-53
2023/08/04 00:16:07;;;;;;;4.57;1.50;;;15.80;99.90;;;;;;5072213;28;20028;-52
2023/08/04 00:18:33;;;;;;;3.92;1.80;;;15.70;99.90;;;;;;5072313;28;20422;-53
2023/08/04 00:20:59;;;;;;;4.28;1.60;;;15.80;99.90;;;;;;5072091;28;20028;-54
2023/08/04 00:23:25;;;;;;;7.22;1.80;;;15.70;99.90;;;;;;5071988;28;20085;-52
2023/08/04 00:25:50;;;;;;;2.53;1.38;;;15.70;99.90;;;;;;5071897;28;20036;-52
2023/08/04 00:28:16;;;;;;;3.53;1.63;;;15.60;99.90;;;;;;5072005;28;20128;-54
2023/08/04 00:30:42;;;;;;;4.32;1.90;;;15.60;99.90;;;;;;5070631;28;20029;-53
2023/08/04 00:33:08;;;;;;;3.08;1.60;;;15.60;99.90;;;;;;5071789;28;20365;-51
2023/08/04 00:35:33;;;;;;;3.97;1.85;;;15.60;99.90;;;;;;5071613;28;20473;-53
2023/08/04 00:37:59;;;;;;;4.68;2.10;;;15.60;99.90;;;;;;5070346;28;20103;-53
2023/08/04 00:40:25;;;;;;;5.97;1.70;;;15.60;99.90;;;;;;5071655;28;20099;-54
2023/08/04 00:42:50;;;;;;;3.92;1.60;;;15.60;99.90;;;;;;5071373;28;20020;-54
2023/08/04 00:45:16;;;;;;;10.57;2.33;;;15.60;99.90;;;;;;5071550;28;20020;-54
2023/08/04 00:47:43;;;;;;;7.55;2.15;;;15.60;99.90;;;;;;5071606;28;20062;-53
2023/08/04 00:50:09;;;;;;;4.40;1.77;;;15.70;99.90;;;;;;5071531;28;20408;-54
2023/08/04 00:52:37;;;;;;;5.75;1.83;;;15.70;99.90;;;;;;5069813;28;20086;-53
2023/08/04 00:55:04;;;;;;;7.57;2.53;;;15.70;99.90;;;;;;5071160;28;20031;-52
2023/08/04 00:57:30;;;;;;;4.88;1.90;;;15.60;99.90;;;;;;5071485;28;20039;-50
2023/08/04 00:59:56;;;;;;;4.10;1.73;;;15.60;99.90;;;;;;5071408;28;20108;-53
2023/08/04 01:02:22;;;;;;;7.05;1.83;;;15.70;99.90;;;;;;5069802;28;20032;-54
2023/08/04 01:04:48;;;;;;;8.15;1.70;;;15.70;99.90;;;;;;5069812;28;20036;-53
2023/08/04 01:07:24;;;;;;;3.80;1.73;;;15.70;99.90;;;;;;5071254;28;20043;-52
2023/08/04 01:10:00;;;;;;;3.85;1.70;;;15.70;99.90;;;;;;5069834;28;20564;-53
2023/08/04 01:12:46;;;;;;;5.13;1.88;;;15.70;99.90;;;;;;5069501;28;20051;-54
2023/08/04 01:15:13;;;;;;;7.03;2.00;;;15.70;99.90;;;;;;5069611;28;20024;-52
2023/08/04 01:17:39;;;;;;;4.40;1.70;;;15.70;99.90;;;;;;5071026;28;20050;-52
2023/08/04 01:20:05;;;;;;;5.45;2.17;;;15.70;99.90;;;;;;5070975;28;20028;-54
2023/08/04 01:22:34;;;;;;;6.93;2.10;;;15.60;99.90;;;;;;5070656;28;20036;-54
2023/08/04 01:25:00;;;;;;;7.13;1.80;;;15.60;99.90;;;;;;5069545;28;20032;-54
2023/08/04 01:27:50;;;;;;;6.30;2.13;;;15.60;99.90;;;;;;5069728;28;20045;-54
2023/08/04 01:30:21;;;;;;;5.03;1.85;;;15.60;99.90;;;;;;5069719;28;20400;-51
2023/08/04 01:32:47;;;;;;;7.63;2.25;;;15.60;99.90;;;;;;5069194;28;20094;-52
2023/08/04 01:35:14;;;;;;;7.03;3.03;;;15.60;99.90;;;;;;5070681;28;20480;-53
2023/08/04 01:37:40;;;;;;;7.72;1.92;;;15.50;99.90;;;;;;5070780;28;20024;-51
2023/08/04 01:40:07;;;;;;;6.53;1.48;;;15.50;99.90;;;;;;5070733;28;20029;-53
2023/08/04 01:42:32;;;;;;;4.93;1.90;;;15.50;99.90;;;;;;5069265;28;20036;-53
2023/08/04 01:44:58;;;;;;;6.35;1.77;;;15.50;99.90;;;;;;5069200;28;20029;-49
2023/08/04 01:47:23;;;;;;;4.57;1.73;;;15.50;99.90;;;;;;5070632;28;20109;-52
2023/08/04 01:49:49;;;;;;;3.70;1.80;;;15.50;99.90;;;;;;5069939;28;20422;-52
2023/08/04 01:52:15;;;;;;;8.05;2.10;;;15.50;99.90;;;;;;5070277;28;20043;-53
2023/08/04 01:54:40;;;;;;;5.75;2.00;;;15.50;99.90;;;;;;5069169;28;20059;-52
2023/08/04 01:57:06;;;;;;;6.07;2.22;;;15.50;99.90;;;;;;5069324;28;20075;-50
2023/08/04 01:59:32;;;;;;;6.80;1.90;;;15.40;99.90;;;;;;5069222;28;20124;-52
2023/08/04 02:01:57;;;;;;;5.45;1.90;;;15.40;99.90;;;;;;5069049;28;20076;-53
2023/08/04 02:04:23;;;;;;;5.00;1.92;;;15.40;99.90;;;;;;5068975;28;20115;-49
2023/08/04 02:06:51;;;;;;;4.00;2.15;;;15.40;99.90;;;;;;5069187;28;20120;-52
2023/08/04 02:09:17;;;;;;;4.57;1.83;;;15.30;99.90;;;;;;5069496;28;20585;-52
2023/08/04 02:11:42;;;;;;;3.40;1.77;;;15.30;99.90;;;;;;5068859;28;20032;-50
2023/08/04 02:14:08;;;;;;;6.65;2.13;;;15.30;99.90;;;;;;5070208;28;20119;-49
2023/08/04 02:16:34;;;;;;;5.28;2.05;;;15.30;99.90;;;;;;5070173;28;20039;-49
2023/08/04 02:19:02;;;;;;;6.18;1.98;;;15.30;99.90;;;;;;5070314;28;20025;-50
2023/08/04 02:21:28;;;;;;;7.75;2.28;;;15.30;99.90;;;;;;5068979;28;20064;-49
2023/08/04 02:23:53;;;;;;;5.88;2.30;;;15.30;99.90;;;;;;5068824;28;20072;-52
2023/08/04 02:26:19;;;;;;;7.10;2.25;;;15.20;99.90;;;;;;5068856;28;20032;-52
2023/08/04 02:28:45;;;;;;;5.85;2.20;;;15.20;99.90;;;;;;5070077;28;20051;-53
2023/08/04 02:31:10;;;;;;;5.65;2.60;;;15.20;99.90;;;;;;5052293;28;20287;-51
2023/08/04 02:33:36;;;;;;;6.45;2.13;;;15.20;99.90;;;;;;5069995;28;20029;-49
2023/08/04 02:36:02;;;;;;;6.07;1.85;;;15.10;99.90;;;;;;5068732;28;20020;-50
2023/08/04 02:38:28;;;;;;;7.82;2.50;;;15.10;99.90;;;;;;5070232;28;20040;-52
2023/08/04 02:41:02;;;;;;;6.07;2.00;;;15.10;99.90;;;;;;5068921;28;20040;-53
2023/08/04 02:43:28;;;;;;;5.93;2.35;;;15.10;99.90;;;;;;5069868;28;20393;-52
2023/08/04 02:45:54;;;;;;;7.80;2.25;;;15.10;99.90;;;;;;5068666;28;20035;-52
2023/08/04 02:48:19;;;;;;;6.22;2.25;;;15.10;99.90;;;;;;5068849;28;20036;-53
2023/08/04 02:50:46;;;;;;;7.30;2.30;;;15.10;99.90;;;;;;5068665;28;20415;-51
2023/08/04 02:53:12;;;;;;;6.68;2.60;;;15.10;99.90;;;;;;5068360;28;20036;-53
2023/08/04 02:55:38;;;;;;;9.10;2.85;;;15.10;99.90;;;;;;5068473;28;20583;-52
2023/08/04 02:58:04;;;;;;;4.88;2.35;;;15.10;99.90;;;;;;5069925;28;20112;-49
2023/08/04 03:00:30;;;;;;;5.70;2.20;;;15.10;99.90;;;;;;5070497;28;20024;-53
2023/08/04 03:02:56;;;;;;;6.18;3.38;;;15.10;99.90;;;;;;5073361;28;20036;-49
2023/08/04 03:05:22;;;;;;;6.38;2.40;;;15.10;99.90;;;;;;5073387;28;20033;-50
2023/08/04 03:07:47;;;;;;;6.78;2.40;;;15.10;99.90;;;;;;5073496;28;20028;-53
2023/08/04 03:10:13;;;;;;;6.28;2.70;;;15.00;99.90;;;;;;5073546;28;20024;-49
2023/08/04 03:12:38;;;;;;;8.98;3.10;;;15.10;99.90;;;;;;5073151;28;20032;-49
2023/08/04 03:15:04;;;;;;;6.60;2.53;;;15.00;99.90;;;;;;5073241;28;20479;-50
2023/08/04 03:17:30;;;;;;;4.57;2.15;;;15.00;99.90;;;;;;5073533;28;20029;-48
2023/08/04 03:19:56;;;;;;;7.05;2.17;;;15.00;99.90;;;;;;5073245;28;20447;-52
2023/08/04 03:22:21;;;;;;;6.40;2.85;;;14.90;99.90;;;;;;5073000;28;20060;-52
2023/08/04 03:24:47;;;;;;;6.80;2.80;;;14.90;99.90;;;;;;5073460;28;20090;-53
2023/08/04 03:27:12;;;;;;;5.82;2.33;;;14.90;99.90;;;;;;5073128;28;20032;-53
2023/08/04 03:29:38;;;;;;;5.35;2.63;;;14.90;99.90;;;;;;5073154;28;20086;-52
2023/08/04 03:32:04;;;;;;;6.22;2.80;;;14.80;99.90;;;;;;5072878;28;20060;-50
2023/08/04 03:34:29;;;;;;;5.63;2.45;;;14.90;99.90;;;;;;5072894;28;20028;-51
2023/08/04 03:36:55;;;;;;;9.73;2.67;;;14.80;99.90;;;;;;5073106;28;20430;-51
2023/08/04 03:39:21;;;;;;;11.93;3.28;;;14.80;99.90;;;;;;5073142;28;20036;-51
2023/08/04 03:41:46;;;;;;;6.65;2.75;;;14.80;99.90;;;;;;5072662;28;20484;-52
2023/08/04 03:44:12;;;;;;;6.32;2.45;;;14.70;99.90;;;;;;5072952;28;20029;-52
2023/08/04 03:46:38;;;;;;;7.85;2.75;;;14.70;99.90;;;;;;5072720;28;20492;-52
2023/08/04 03:49:03;;;;;;;8.80;3.00;;;14.70;99.90;;;;;;5072920;28;20033;-49
2023/08/04 03:51:29;;;;;;;7.15;2.78;;;14.70;99.90;;;;;;5072698;28;20036;-52
2023/08/04 03:53:54;;;;;;;5.30;2.50;;;14.80;99.90;;;;;;5072788;28;20279;-52
2023/08/04 03:56:20;;;;;;;6.28;2.30;;;14.80;99.90;;;;;;5071419;28;20063;-54
2023/08/04 03:58:45;;;;;;;6.72;2.35;;;14.80;99.90;;;;;;5072936;28;20021;-53
2023/08/04 04:01:11;;;;;;;8.85;3.13;;;14.80;99.90;;;;;;5072877;28;20395;-50
2023/08/04 04:03:37;;;;;;;7.28;3.13;;;14.80;99.90;;;;;;5072590;28;20035;-50
2023/08/04 04:06:03;;;;;;;11.90;3.28;;;14.80;99.90;;;;;;5072428;28;20033;-53
2023/08/04 04:08:28;;;;;;;9.55;3.20;;;14.80;99.90;;;;;;5072569;28;20056;-51
2023/08/04 04:10:55;;;;;;;8.50;2.95;;;14.80;99.90;;;;;;5072295;28;20029;-51
2023/08/04 04:13:24;;;;;;;6.22;3.00;;;14.80;99.90;;;;;;5071648;28;20453;-49
2023/08/04 04:15:50;;;;;;;9.18;3.10;;;14.80;99.90;;;;;;5072156;28;20029;-53
2023/08/04 04:18:15;;;;;;;6.95;2.88;;;14.70;99.90;;;;;;5072352;28;20524;-51
2023/08/04 04:20:41;;;;;;;7.80;2.78;;;14.70;99.90;;;;;;5072098;28;20044;-52
2023/08/04 04:23:06;;;;;;;8.65;2.80;;;14.70;99.90;;;;;;5071923;28;20050;-51
2023/08/04 04:25:32;;;;;;;10.82;3.60;;;14.70;99.90;;;;;;5071884;28;20032;-54
2023/08/04 04:27:58;;;;;;;14.45;3.28;;;14.70;99.90;;;;;;5071899;28;20028;-52
2023/08/04 04:30:23;;;;;;;6.82;2.97;;;14.70;99.90;;;;;;5071830;28;20025;-53
2023/08/04 04:32:49;;;;;;;7.68;3.50;;;14.80;99.90;;;;;;5071739;28;20063;-53
2023/08/04 04:35:15;;;;;;;9.55;3.20;;;14.80;99.90;;;;;;5071734;28;20555;-52
2023/08/04 04:37:40;;;;;;;12.23;3.60;;;14.80;99.90;;;;;;5072359;28;20031;-54
2023/08/04 04:40:06;;;;;;;7.07;2.90;;;14.80;99.90;;;;;;5071628;28;20055;-52
2023/08/04 04:42:33;;;;;;;7.47;2.85;;;14.90;99.90;;;;;;5071455;28;20037;-52
2023/08/04 04:45:00;;;;;;;6.68;3.28;;;14.90;99.90;;;;;;5071397;28;20039;-52
2023/08/04 04:47:25;;;;;;;5.60;2.42;;;14.90;99.90;;;;;;5071618;28;20039;-52
2023/08/04 04:49:51;;;;;;;8.90;3.20;;;14.90;99.90;;;;;;5071468;28;20024;-54
2023/08/04 04:52:30;;;;;;;9.65;3.13;;;15.00;99.90;;;;;;5071114;28;20075;-54
2023/08/04 04:54:56;;;;;;;;;;;15.00;99.90;;;;;;5071822;28;20104;-53
2023/08/04 04:57:21;;;;;;;9.68;2.80;;;15.00;99.90;;;;;;5071422;28;20003;-53
2023/08/04 04:59:47;;;;;;;6.90;3.15;;;15.00;99.90;;;;;;5071611;28;20025;-54
2023/08/04 05:02:13;;;;;;;7.47;3.22;;;15.10;99.90;;;;;;5071021;28;20389;-54
2023/08/04 05:04:38;;;;;;;8.45;2.80;;;15.10;99.90;;;;;;5071068;28;20033;-52
2023/08/04 05:07:04;;;;;;;6.80;3.08;;;15.10;99.90;;;;;;5071130;28;20036;-50
2023/08/04 05:09:30;;;;;;;9.32;3.15;;;15.10;99.90;;;;;;5071225;28;20060;-51
2023/08/04 05:11:56;;;;;;;8.68;3.13;;;15.10;99.90;;;;;;5070780;28;20028;-53
2023/08/04 05:14:21;;;;;;;8.65;2.92;;;15.20;99.90;;;;;;5070966;28;20048;-54
2023/08/04 05:16:47;;;;;;;8.88;2.83;;;15.20;99.90;;;;;;5070990;28;20066;-52
2023/08/04 05:19:13;;;;;;;7.22;2.85;;;15.20;99.90;;;;;;5070912;28;20024;-52
2023/08/04 05:21:38;;;;;;;7.40;2.90;;;15.20;99.90;;;;;;5070742;28;20033;-52
2023/08/04 05:24:04;;;;;;;8.52;3.00;;;15.20;99.90;;;;;;5068772;28;20207;-49
2023/08/04 05:26:29;;;;;;;10.15;3.40;;;15.20;99.90;;;;;;5070864;28;20021;-54
2023/08/04 05:28:55;;;;;;;7.20;3.10;;;15.30;99.90;;;;;;5070740;28;20299;-53
2023/08/04 05:31:20;;;;;;;7.18;2.47;;;15.30;99.90;;;;;;5070577;28;20039;-54
2023/08/04 05:33:46;;;;;;;9.48;3.05;;;15.30;99.90;;;;;;5070787;28;20017;-54
2023/08/04 05:36:12;;;;;;;9.00;2.67;;;15.40;99.90;;;;;;5070548;28;20495;-49
2023/08/04 05:38:38;;;;;;;9.30;4.43;;;15.40;99.90;;;;;;5070947;28;20358;-53
2023/08/04 05:41:05;;;;;;;8.40;3.50;;;15.40;99.90;;;;;;5070735;28;20304;-53
2023/08/04 05:43:31;;;;;;;8.13;3.55;;;15.50;99.90;;;;;;5070500;28;20119;-54
2023/08/04 05:46:02;;;;;;;10.48;4.47;;;15.50;99.90;;;;;;5070374;28;20110;-51
2023/08/04 05:48:32;;;;;;;7.13;2.90;;;15.50;99.90;;;;;;5070595;28;20074;-53
2023/08/04 05:50:58;;;;;;;7.85;3.90;;;15.60;99.90;;;;;;5070452;28;20036;-54
2023/08/04 05:53:24;;;;;;;9.32;3.90;;;15.60;99.90;;;;;;5069100;28;20155;-53
2023/08/04 05:55:49;;;;;;;8.43;3.38;;;15.70;99.90;;;;;;5070388;28;20060;-53
2023/08/04 05:58:15;;;;;;;9.80;3.30;;;15.70;99.90;;;;;;5070466;28;20020;-54
2023/08/04 06:00:41;;;;;;;9.55;3.17;;;15.70;99.90;;;;;;5070619;28;20028;-52
2023/08/04 06:03:06;;;;;;;6.93;2.95;;;15.70;99.90;;;;;;5070031;28;20025;-52
2023/08/04 06:05:32;;;;;;;5.28;2.50;;;15.70;99.90;;;;;;5070174;28;20103;-53
2023/08/04 06:07:57;;;;;;;7.38;2.90;;;15.80;99.90;;;;;;5070445;28;20051;-53
2023/08/04 06:10:23;;;;;;;7.97;2.75;;;15.80;99.90;;;;;;5070490;28;20121;-53
2023/08/04 06:12:49;;;;;;;7.60;3.28;;;15.80;99.90;;;;;;5069992;28;20040;-52
2023/08/04 06:15:15;;;;;;;7.30;3.10;;;15.80;99.90;;;;;;5068957;28;20035;-53
2023/08/04 06:17:41;;;;;;;10.85;3.35;;;15.80;99.90;;;;;;5070414;28;20036;-51
2023/08/04 06:20:08;;;;;;;9.18;3.63;;;15.80;99.90;;;;;;5070278;28;20081;-53
2023/08/04 06:22:35;;;;;;;8.68;3.15;;;15.90;99.90;;;;;;5070057;28;20442;-51
2023/08/04 06:25:01;;;;;;;7.75;3.03;;;15.90;99.90;;;;;;5070078;28;20032;-52
2023/08/04 06:27:27;;;;;;;9.45;3.05;;;15.90;99.90;;;;;;5070100;28;20443;-52
2023/08/04 06:29:52;;;;;;;8.13;3.03;;;15.80;99.90;;;;;;5070430;28;20028;-53
2023/08/04 06:32:18;;;;;;;7.57;3.20;;;15.90;99.90;;;;;;5069858;28;20440;-54
2023/08/04 06:34:44;;;;;;;8.80;3.53;;;15.80;99.90;;;;;;5070033;28;20097;-52
2023/08/04 06:37:09;;;;;;;8.13;3.40;;;15.90;99.90;;;;;;5073819;28;20020;-52
2023/08/04 06:39:35;;;;;;;9.95;3.50;;;15.80;99.90;;;;;;5074188;28;20409;-51
2023/08/04 06:42:02;;;;;;;7.15;2.97;;;15.90;99.90;;;;;;5073809;28;20465;-53
2023/08/04 06:44:28;;;;;;;9.75;3.80;;;15.90;99.90;;;;;;5072434;28;20025;-52
2023/08/04 06:46:53;;;;;;;10.65;4.47;;;15.90;99.90;;;;;;5073888;28;20503;-54
2023/08/04 06:49:19;;;;;;;9.85;4.72;;;16.00;99.90;;;;;;5073828;28;20047;-51
2023/08/04 06:51:44;;;;;;;13.27;4.80;;;16.00;99.90;;;;;;5073612;28;20490;-54
2023/08/04 06:54:10;;;;;;;16.60;5.60;;;16.10;99.90;;;;;;5073677;28;20024;-53
2023/08/04 06:56:36;;;;;;;12.38;4.53;;;16.00;99.90;;;;;;5073610;28;20024;-52
2023/08/04 06:59:02;;;;;;;8.85;4.07;;;16.10;99.90;;;;;;5073853;28;20021;-51
2023/08/04 07:01:27;;;;;;;12.63;3.60;;;16.20;99.90;;;;;;5073512;28;20043;-52
2023/08/04 07:03:53;;;;;;;8.23;3.15;;;16.20;99.90;;;;;;5073941;28;20119;-53
2023/08/04 07:06:18;;;;;;;11.85;4.38;;;16.20;99.90;;;;;;5073767;28;20086;-53
2023/08/04 07:08:44;;;;;;;11.35;3.30;;;16.10;99.90;;;;;;5073682;28;20039;-53
2023/08/04 07:11:16;;;;;;;8.68;3.85;;;16.20;99.90;;;;;;5073574;28;20029;-51
2023/08/04 07:13:43;;;;;;;7.35;3.42;;;16.20;99.90;;;;;;5073365;28;20028;-54
2023/08/04 07:16:10;;;;;;;11.48;4.18;;;16.30;99.90;;;;;;5073284;28;20033;-53
2023/08/04 07:18:36;;;;;;;12.02;3.58;;;16.30;99.90;;;;;;5073558;28;20052;-52
2023/08/04 07:21:09;;;;;;;7.13;3.25;;;16.40;99.90;;;;;;5073609;28;20092;-51
2023/08/04 07:23:35;;;;;;;7.03;3.50;;;16.40;99.90;;;;;;5073333;28;20039;-50
2023/08/04 07:26:03;;;;;;;11.50;3.90;;;16.50;99.90;;;;;;5073461;28;20032;-54
2023/08/04 07:28:28;;;;;;;11.55;4.40;;;16.60;99.90;;;;;;5073345;28;20036;-52
2023/08/04 07:30:54;;;;;;;9.07;3.80;;;16.70;99.90;;;;;;5071948;28;20549;-53
2023/08/04 07:33:22;;;;;;;5.15;3.42;;;16.80;99.90;;;;;;5073252;28;20484;-51
2023/08/04 07:35:55;;;;;;;8.67;3.97;;;16.90;99.90;;;;;;5073113;28;20044;-51
2023/08/04 07:38:22;;;;;;;11.77;3.67;;;17.00;99.90;;;;;;5073153;28;20097;-48
2023/08/04 07:40:48;;;;;;;11.15;3.70;;;17.10;99.90;;;;;;5073040;28;20567;-53
2023/08/04 07:43:14;;;;;;;10.40;4.22;;;17.20;99.90;;;;;;5072713;28;20033;-54
2023/08/04 07:45:40;;;;;;;12.35;4.70;;;17.40;99.90;;;;;;5072675;28;20025;-54
2023/08/04 07:48:06;;;;;;;11.32;5.18;;;17.60;99.90;;;;;;5070707;28;20370;-54
2023/08/04 07:50:34;;;;;;;12.98;5.57;;;17.80;99.90;;;;;;5072816;28;20051;-54
2023/08/04 07:53:00;;;;;;;10.13;3.75;;;17.90;99.90;;;;;;5072655;28;20125;-51
2023/08/04 07:55:25;;;;;;;9.43;4.47;;;17.80;99.90;;;;;;5072517;28;20105;-51
2023/08/04 07:57:51;;;;;;;11.80;4.38;;;17.80;99.90;;;;;;5072767;28;20358;-53
2023/08/04 08:00:17;;;;;;;8.30;3.67;;;17.70;99.90;;;;;;5072971;28;20025;-53
2023/08/04 08:02:42;;;;;;;9.32;3.72;;;17.70;99.90;;;;;;5072300;28;20021;-52
2023/08/04 08:05:08;;;;;;;8.45;3.55;;;17.70;99.90;;;;;;5072355;28;20059;-53
2023/08/04 08:07:34;;;;;;;7.38;3.38;;;17.70;99.90;;;;;;5072394;28;20109;-53
2023/08/04 08:10:00;;;;;;;7.55;3.45;;;17.70;99.90;;;;;;5072440;28;20442;-52
2023/08/04 08:12:26;;;;;;;10.00;3.72;;;17.80;99.90;;;;;;5072016;28;20040;-53
2023/08/04 08:14:52;;;;;;;9.00;3.40;;;17.90;99.90;;;;;;5072018;28;20028;-51
2023/08/04 08:17:18;;;;;;;8.05;3.15;;;18.10;99.90;;;;;;5072315;28;20059;-52
2023/08/04 08:19:44;;;;;;;8.05;2.85;;;18.30;99.90;;;;;;5072477;28;20035;-52
2023/08/04 08:22:09;;;;;;;4.45;2.47;;;18.30;99.90;;;;;;5072004;28;20024;-52
2023/08/04 08:24:35;;;;;;;5.38;2.80;;;18.50;99.90;;;;;;5071794;28;20033;-53
2023/08/04 08:27:01;;;;;;;6.53;2.65;;;18.50;99.90;;;;;;5072160;28;20040;-48
2023/08/04 08:29:27;;;;;;;6.97;3.22;;;18.60;99.90;;;;;;5071916;28;20044;-49
2023/08/04 08:31:53;;;;;;;5.13;2.33;;;18.60;99.90;;;;;;5071728;28;20437;-49
2023/08/04 08:34:18;;;;;;;4.18;1.90;;;18.50;99.90;;;;;;5071822;28;20121;-48
2023/08/04 08:36:44;;;;;;;6.75;2.47;;;18.30;99.90;;;;;;5071899;28;20029;-48
2023/08/04 08:39:10;;;;;;;4.25;2.30;;;18.20;99.90;;;;;;5071775;28;20037;-48
2023/08/04 08:41:35;;;;;;;5.55;2.05;;;18.20;99.90;;;;;;5071573;28;20043;-48
2023/08/04 08:44:01;;;;;;;6.90;2.33;;;18.20;99.90;;;;;;5071633;28;20061;-48
2023/08/04 08:46:27;;;;;;;6.05;2.20;;;18.30;99.90;;;;;;5071528;28;20347;-48
2023/08/04 08:48:57;;;;;;;7.38;2.20;;;18.40;99.90;;;;;;5071683;28;20035;-49
2023/08/04 08:51:25;;;;;;;3.17;1.55;;;18.50;99.90;;;;;;5071373;28;20404;-48
2023/08/04 08:53:52;;;;;;;5.95;1.77;;;18.60;99.90;;;;;;5071347;28;20489;-48
2023/08/04 08:56:18;;;;;;;10.00;2.58;;;18.80;99.90;;;;;;5071132;28;20029;-50
2023/08/04 08:58:44;;;;;;;6.70;2.13;;;19.00;99.90;;;;;;5071112;28;20021;-50
2023/08/04 09:01:10;;;;;;;3.30;1.80;;;19.10;99.90;;;;;;5071404;28;20082;-50
2023/08/04 09:03:37;;;;;;;8.23;2.10;;;19.10;99.90;;;;;;5071049;28;20028;-50
2023/08/04 09:06:03;;;;;;;4.15;1.80;;;19.20;99.90;;;;;;5071372;28;20412;-51
2023/08/04 09:08:30;;;;;;;6.60;2.58;;;19.20;99.90;;;;;;5071176;28;20032;-48
2023/08/04 09:10:58;;;;;;;8.38;2.25;;;19.30;99.90;;;;;;5071093;28;20029;-50
2023/08/04 09:13:24;;;;;;;4.32;1.98;;;19.30;99.90;;;;;;5070845;28;20094;-49
2023/08/04 09:15:52;;;;;;;5.10;1.77;;;19.40;99.90;;;;;;5070970;28;20021;-52
2023/08/04 09:18:30;;;;;;;4.93;2.25;;;19.50;99.90;;;;;;5071131;28;20040;-50
2023/08/04 09:21:08;;;;;;;4.10;1.95;;;19.60;99.90;;;;;;5069779;28;20041;-50
2023/08/04 09:23:37;;;;;;;2.97;1.73;;;19.80;99.90;;;;;;5070627;28;20051;-52
2023/08/04 09:26:03;;;;;;;3.20;1.95;;;19.90;99.90;;;;;;5070685;28;20035;-52
2023/08/04 09:28:29;;;;;;;4.35;1.85;;;19.90;99.90;;;;;;5070778;28;20029;-53
2023/08/04 09:31:06;;;;;;;5.60;2.08;;;19.90;99.90;;;;;;5070799;28;20028;-50
2023/08/04 09:33:33;;;;;;;4.88;2.28;;;19.90;99.90;;;;;;5070610;28;20425;-51
2023/08/04 09:36:12;;;;;;;5.53;2.22;;;19.90;99.90;;;;;;5070669;28;20226;-51
2023/08/04 09:38:40;;;;;;;6.07;2.17;;;19.90;99.90;;;;;;5070787;28;20016;-48
2023/08/04 09:41:07;;;;;;;2.78;1.60;;;20.30;99.90;;;;;;5070770;28;20029;-52
2023/08/04 09:43:34;;;;;;;3.88;2.03;;;20.40;99.90;;;;;;5070412;28;20055;-48
2023/08/04 09:46:06;;;;;;;3.72;1.70;;;20.40;99.90;;;;;;5069230;28;20036;-50
2023/08/04 09:48:33;;;;;;;5.68;2.25;;;20.50;99.90;;;;;;5070624;28;20076;-51
2023/08/04 09:51:16;;;;;;;3.70;2.00;;;20.30;99.90;;;;;;5070643;28;20035;-52
2023/08/04 09:53:46;;;;;;;3.47;2.03;;;20.10;99.90;;;;;;5070305;28;20029;-51
2023/08/04 09:56:14;;;;;;;5.60;2.30;;;20.10;99.90;;;;;;5070419;28;20144;-54
2023/08/04 09:58:40;;;;;;;4.43;2.00;;;20.10;99.90;;;;;;5070952;28;20016;-53
2023/08/04 10:01:06;;;;;;;5.70;2.30;;;20.10;99.90;;;;;;5070561;28;20021;-52
2023/08/04 10:03:40;;;;;;;4.78;2.33;;;20.30;99.90;;;;;;5070247;28;20032;-53
2023/08/04 10:06:07;;;;;;;5.72;2.65;;;20.50;99.90;;;;;;5070364;28;20043;-49
2023/08/04 10:08:39;;;;;;;7.00;2.42;;;20.50;99.90;;;;;;5070551;28;20115;-52
2023/08/04 10:11:05;;;;;;;7.03;2.42;;;20.50;99.90;;;;;;5071927;28;20032;-54
2023/08/04 10:13:40;;;;;;;5.25;2.10;;;20.40;99.90;;;;;;5074137;28;20036;-50
2023/08/04 10:16:08;;;;;;;5.75;2.42;;;20.40;99.90;;;;;;5074399;28;20105;-53
2023/08/04 10:18:56;;;;;;;5.43;2.30;;;20.10;99.90;;;;;;5074517;28;20393;-51
2023/08/04 10:21:38;;;;;;;5.38;2.53;;;19.90;99.90;;;;;;5074249;28;20037;-52
2023/08/04 10:24:06;;;;;;;3.92;2.03;;;19.80;99.90;;;;;;5074259;28;20354;-52
2023/08/04 10:26:33;;;;;;;5.97;2.30;;;20.10;99.90;;;;;;5074053;28;20093;-50
2023/08/04 10:29:07;;;;;;;5.65;2.25;;;20.40;99.90;;;;;;5074210;28;20032;-53
2023/08/04 10:31:47;;;;;;;5.25;2.28;;;20.50;99.90;;;;;;5074084;28;20086;-51
2023/08/04 10:34:19;;;;;;;4.95;2.22;;;20.60;99.90;;;;;;5073990;28;20036;-53
2023/08/04 10:36:59;;;;;;;4.88;1.77;;;20.80;99.90;;;;;;5073902;28;20420;-53
2023/08/04 10:39:29;;;;;;;5.85;2.20;;;20.90;99.90;;;;;;5074210;28;20492;-51
2023/08/04 10:41:55;;;;;;;4.38;1.95;;;20.80;99.90;;;;;;5072748;28;20071;-52
2023/08/04 10:44:24;;;;;;;4.00;1.92;;;20.70;99.90;;;;;;5073954;28;20513;-50
2023/08/04 10:46:49;;;;;;;4.50;1.92;;;20.80;99.90;;;;;;5073978;28;20025;-52
2023/08/04 10:49:15;;;;;;;4.70;2.08;;;20.80;99.90;;;;;;5074000;28;20035;-52
2023/08/04 10:51:41;;;;;;;3.25;1.80;;;20.70;99.90;;;;;;5073699;28;20396;-52
2023/08/04 10:54:06;;;;;;;6.03;2.80;;;20.70;99.90;;;;;;5073969;28;20124;-51
2023/08/04 10:56:36;;;;;;;5.30;2.40;;;21.10;99.90;;;;;;5073663;28;20167;-52
2023/08/04 10:59:06;;;;;;;4.03;1.80;;;21.30;99.90;;;;;;5073997;28;20048;-52
2023/08/04 11:01:32;;;;;;;7.00;3.40;;;21.30;99.90;;;;;;5073900;28;20129;-50
2023/08/04 11:03:58;;;;;;;5.70;2.47;;;21.40;99.90;;;;;;5073967;28;20623;-53
2023/08/04 11:06:24;;;;;;;4.20;1.65;;;21.20;99.90;;;;;;5073736;28;20473;-53
2023/08/04 11:08:49;;;;;;;4.38;2.08;;;21.00;99.90;;;;;;5073968;28;20036;-47
2023/08/04 11:11:15;;;;;;;6.35;2.15;;;21.00;99.90;;;;;;5073575;28;20024;-48
2023/08/04 11:13:41;;;;;;;6.10;2.28;;;20.90;99.90;;;;;;5073398;28;20037;-49
2023/08/04 11:16:06;;;;;;;4.05;2.22;;;20.80;99.90;;;;;;5073363;28;20029;-49
2023/08/04 11:18:32;;;;;;;6.10;2.10;;;20.70;99.90;;;;;;5073554;28;20477;-53
2023/08/04 11:21:02;;;;;;;7.30;2.30;;;20.70;99.90;;;;;;5073440;28;20024;-53
2023/08/04 11:23:29;;;;;;;4.57;2.00;;;20.90;99.90;;;;;;5072093;28;20457;-51
2023/08/04 11:25:56;;;;;;;5.18;2.20;;;20.90;99.90;;;;;;5073178;28;20435;-52
2023/08/04 11:28:22;;;;;;;6.32;2.20;;;21.00;99.90;;;;;;5073052;28;20040;-53
2023/08/04 11:30:47;;;;;;;3.40;1.90;;;20.90;99.90;;;;;;5073087;28;20153;-50
2023/08/04 11:33:16;;;;;;;2.60;1.70;;;20.70;99.90;;;;;;5072942;28;20085;-51
2023/08/04 11:35:44;;;;;;;3.08;1.73;;;20.60;99.90;;;;;;5072895;28;20037;-53
2023/08/04 11:38:10;;;;;;;4.30;2.05;;;20.50;99.90;;;;;;5073199;28;20025;-53
2023/08/04 11:40:37;;;;;;;6.45;2.78;;;20.60;99.90;;;;;;5072960;28;20028;-53
2023/08/04 11:43:04;;;;;;;3.55;2.00;;;20.50;99.90;;;;;;5072634;28;20032;-51
2023/08/04 11:45:31;;;;;;;6.97;3.25;;;20.60;99.90;;;;;;5072713;28;20033;-53
2023/08/04 11:47:58;;;;;;;5.78;2.88;;;20.60;99.90;;;;;;5072830;28;20032;-52
2023/08/04 11:50:26;;;;;;;5.57;2.70;;;20.70;99.90;;;;;;5073108;28;20040;-52
2023/08/04 11:52:53;;;;;;;4.22;2.20;;;20.90;99.90;;;;;;5072977;28;20146;-51
2023/08/04 11:55:18;;;;;;;4.85;2.45;;;21.00;99.90;;;;;;5072634;28;20024;-49
2023/08/04 11:57:51;;;;;;;8.43;3.80;;;20.90;99.90;;;;;;5072627;28;20093;-53
2023/08/04 12:00:34;;;;;;;3.45;2.28;;;20.80;99.90;;;;;;5072669;28;20037;-52
2023/08/04 12:03:02;;;;;;;6.72;3.80;;;20.60;99.90;;;;;;5072392;28;20098;-52
2023/08/04 12:05:32;;;;;;;5.82;3.00;;;20.80;99.90;;;;;;5072308;28;20489;-51
2023/08/04 12:07:59;;;;;;;5.13;2.58;;;21.10;99.90;;;;;;5072468;28;20036;-51
2023/08/04 12:10:25;;;;;;;3.17;1.70;;;21.20;99.90;;;;;;5072283;28;20039;-47
2023/08/04 12:12:51;;;;;;;2.47;1.50;;;21.20;99.90;;;;;;5072070;28;20040;-48
2023/08/04 12:15:17;;;;;;;3.38;1.70;;;21.20;99.90;;;;;;5072304;28;20436;-51
2023/08/04 12:17:43;;;;;;;3.22;1.90;;;21.10;99.90;;;;;;5072443;28;20032;-53
2023/08/04 12:20:11;;;;;;;5.22;2.63;;;21.30;99.90;;;;;;5072290;28;20029;-51
2023/08/04 12:22:37;;;;;;;2.88;1.48;;;21.60;99.90;;;;;;5071994;28;20032;-52
2023/08/04 12:25:07;;;;;;;4.75;2.20;;;21.80;99.90;;;;;;5072008;28;20485;-53
2023/08/04 12:27:34;;;;;;;3.60;1.95;;;22.00;99.90;;;;;;5071939;28;20465;-53
2023/08/04 12:29:59;;;;;;;3.03;1.50;;;22.20;99.90;;;;;;5072127;28;20435;-53
2023/08/04 12:32:25;;;;;;;4.13;1.70;;;22.30;99.90;;;;;;5071834;28;20028;-53
2023/08/04 12:34:51;;;;;;;3.78;1.50;;;22.10;99.90;;;;;;5071234;28;20036;-53
2023/08/04 12:37:16;;;;;;;3.60;1.65;;;22.00;99.90;;;;;;5071903;28;20060;-51
2023/08/04 12:39:44;;;;;;;3.42;1.63;;;21.90;99.90;;;;;;5072015;28;20032;-53
2023/08/04 12:42:10;;;;;;;2.70;1.60;;;21.80;99.90;;;;;;5071737;28;20059;-53
2023/08/04 12:44:35;;;;;;;3.50;1.80;;;21.60;99.90;;;;;;5071571;28;20496;-53